createdAt,value
2023-01-09T00:00:39.360Z,970.10
2023-01-09T00:01:39.309Z,972.30
2023-01-09T00:02:39.297Z,973.39
2023-01-09T00:03:39.295Z,973.52
2023-01-09T00:04:39.267Z,974.46
2023-01-09T00:05:39.230Z,975.56
2023-01-09T00:06:39.235Z,975.87
2023-01-09T00:07:39.246Z,975.88
2023-01-09T00:08:39.213Z,975.70
2023-01-09T00:09:39.189Z,976.36
2023-01-09T00:10:39.202Z,977.05
2023-01-09T00:11:39.198Z,978.02
2023-01-09T00:12:39.158Z,980.18
2023-01-09T00:13:39.151Z,981.18
2023-01-09T00:14:39.146Z,982.01
2023-01-09T00:15:39.132Z,983.28
2023-01-09T00:16:39.145Z,983.85
2023-01-09T00:17:39.125Z,984.71
2023-01-09T00:18:39.096Z,985.63
2023-01-09T00:19:39.077Z,986.14
2023-01-09T00:20:39.113Z,986.30
2023-01-09T00:21:39.065Z,987.07
2023-01-09T00:22:39.056Z,987.32
2023-01-09T00:23:39.056Z,988.01
2023-01-09T00:24:39.029Z,987.84
2023-01-09T00:25:41.003Z,987.42
2023-01-09T00:26:39.021Z,987.76
2023-01-09T00:27:38.996Z,988.23
2023-01-09T00:28:38.980Z,988.99
2023-01-09T00:29:38.983Z,990.06
2023-01-09T00:30:39.039Z,990.78
2023-01-09T00:31:38.992Z,990.90
2023-01-09T00:32:38.963Z,991.09
2023-01-09T00:33:38.919Z,990.83
2023-01-09T00:34:38.909Z,989.74
2023-01-09T00:35:38.907Z,991.36
2023-01-09T00:36:38.902Z,991.97
2023-01-09T00:37:38.892Z,991.75
2023-01-09T00:38:38.880Z,990.41
2023-01-09T00:39:38.859Z,990.75
2023-01-09T00:40:38.849Z,992.04
2023-01-09T00:41:38.858Z,991.74
2023-01-09T00:42:38.824Z,992.01
2023-01-09T00:43:38.811Z,991.97
2023-01-09T00:44:38.849Z,992.28
2023-01-09T00:45:38.837Z,991.62
2023-01-09T00:46:38.799Z,992.38
2023-01-09T00:47:38.775Z,992.55
2023-01-09T00:48:38.751Z,992.21
2023-01-09T00:49:38.741Z,992.19
2023-01-09T00:50:38.763Z,992.11
2023-01-09T00:51:38.726Z,992.42
2023-01-09T00:52:38.709Z,992.71
2023-01-09T00:53:38.707Z,993.50
2023-01-09T00:54:38.692Z,993.28
2023-01-09T00:55:38.686Z,992.84
2023-01-09T00:56:38.677Z,992.93
2023-01-09T00:57:38.665Z,992.98
2023-01-09T00:58:38.666Z,993.22
2023-01-09T00:59:38.623Z,993.73
2023-01-09T01:00:38.660Z,993.28
2023-01-09T01:01:38.838Z,993.13
2023-01-09T01:02:38.664Z,992.88
2023-01-09T01:03:38.585Z,992.51
2023-01-09T01:04:38.577Z,992.38
2023-01-09T01:05:38.565Z,993.04
2023-01-09T01:06:38.572Z,993.02
2023-01-09T01:07:38.566Z,993.26
2023-01-09T01:08:38.532Z,993.74
2023-01-09T01:09:38.514Z,993.39
2023-01-09T01:10:38.537Z,993.35
2023-01-09T01:11:38.512Z,994.46
2023-01-09T01:12:38.475Z,994.84
2023-01-09T01:13:38.484Z,994.53
2023-01-09T01:14:38.461Z,993.76
2023-01-09T01:15:38.443Z,993.51
2023-01-09T01:16:38.515Z,992.81
2023-01-09T01:17:38.413Z,992.33
2023-01-09T01:18:38.449Z,991.88
2023-01-09T01:19:38.405Z,991.62
2023-01-09T01:20:38.407Z,991.88
2023-01-09T01:21:38.472Z,992.37
2023-01-09T01:22:38.392Z,991.92
2023-01-09T01:23:38.363Z,992.00
2023-01-09T01:24:38.333Z,992.41
2023-01-09T01:25:45.603Z,993.05
2023-01-09T01:26:45.624Z,993.33
2023-01-09T01:27:45.932Z,993.25
2023-01-09T01:28:45.556Z,993.15
2023-01-09T01:29:46.578Z,992.75
2023-01-09T01:30:45.652Z,991.61
2023-01-09T01:31:46.553Z,992.04
2023-01-09T01:32:45.505Z,992.72
2023-01-09T01:33:45.504Z,993.41
2023-01-09T01:34:47.767Z,993.31
2023-01-09T01:35:38.238Z,994.34
2023-01-09T01:36:38.230Z,993.80
2023-01-09T01:37:38.202Z,993.60
2023-01-09T01:38:38.183Z,992.97
2023-01-09T01:39:38.203Z,992.18
2023-01-09T01:40:38.159Z,992.03
2023-01-09T01:41:38.174Z,990.58
2023-01-09T01:42:38.172Z,990.61
2023-01-09T01:43:38.131Z,990.48
2023-01-09T01:44:38.133Z,991.11
2023-01-09T01:45:38.143Z,991.51
2023-01-09T01:46:38.105Z,992.22
2023-01-09T01:47:38.091Z,992.38
2023-01-09T01:48:38.064Z,992.44
2023-01-09T01:49:38.065Z,993.00
2023-01-09T01:50:38.060Z,993.56
2023-01-09T01:51:38.039Z,993.45
2023-01-09T01:52:38.058Z,993.47
2023-01-09T01:53:38.030Z,994.93
2023-01-09T01:54:37.996Z,996.17
2023-01-09T01:55:37.997Z,996.95
2023-01-09T01:56:37.986Z,998.06
2023-01-09T01:57:37.975Z,999.56
2023-01-09T01:58:37.964Z,1001.18
2023-01-09T01:59:37.962Z,1002.57
2023-01-09T02:00:37.940Z,1002.74
2023-01-09T02:01:38.145Z,1002.46
2023-01-09T02:02:38.016Z,1002.37
2023-01-09T02:03:37.900Z,1003.48
2023-01-09T02:04:37.910Z,1004.39
2023-01-09T02:05:37.878Z,1004.98
2023-01-09T02:06:37.874Z,1004.77
2023-01-09T02:07:37.879Z,1004.30
2023-01-09T02:08:37.869Z,1003.13
2023-01-09T02:09:37.849Z,1002.87
2023-01-09T02:10:37.845Z,1004.11
2023-01-09T02:11:37.829Z,1004.52
2023-01-09T02:12:37.808Z,1004.07
2023-01-09T02:13:37.775Z,1004.05
2023-01-09T02:14:37.782Z,1004.53
2023-01-09T02:15:37.788Z,1006.13
2023-01-09T02:16:37.771Z,1007.34
2023-01-09T02:17:37.769Z,1007.63
2023-01-09T02:18:37.742Z,1007.81
2023-01-09T02:19:37.731Z,1007.09
2023-01-09T02:20:37.740Z,1006.74
2023-01-09T02:21:41.858Z,1006.54
2023-01-09T02:22:37.688Z,1007.00
2023-01-09T02:23:37.716Z,1006.59
2023-01-09T02:24:37.657Z,1006.40
2023-01-09T02:25:37.666Z,1006.88
2023-01-09T02:26:37.653Z,1006.94
2023-01-09T02:27:37.630Z,1007.74
2023-01-09T02:28:37.616Z,1007.93
2023-01-09T02:29:37.613Z,1008.34
2023-01-09T02:30:37.640Z,1009.28
2023-01-09T02:31:37.669Z,1010.00
2023-01-09T02:32:37.568Z,1011.04
2023-01-09T02:33:37.571Z,1011.72
2023-01-09T02:34:37.548Z,1012.78
2023-01-09T02:35:37.575Z,1013.31
2023-01-09T02:36:37.570Z,1013.47
2023-01-09T02:37:37.510Z,1013.96
2023-01-09T02:38:37.505Z,1014.31
2023-01-09T02:39:37.487Z,1014.16
2023-01-09T02:40:37.479Z,1014.15
2023-01-09T02:41:37.538Z,1015.41
2023-01-09T02:42:37.544Z,1016.16
2023-01-09T02:43:37.447Z,1017.42
2023-01-09T02:44:37.426Z,1018.31
2023-01-09T02:45:37.555Z,1019.11
2023-01-09T02:46:37.439Z,1020.27
2023-01-09T02:47:37.410Z,1021.63
2023-01-09T02:48:37.408Z,1022.88
2023-01-09T02:49:37.389Z,1023.45
2023-01-09T02:50:37.403Z,1023.76
2023-01-09T02:51:37.374Z,1023.45
2023-01-09T02:52:37.390Z,1023.59
2023-01-09T02:53:37.332Z,1023.83
2023-01-09T02:54:37.311Z,1024.27
2023-01-09T02:55:37.319Z,1024.63
2023-01-09T02:56:37.331Z,1024.79
2023-01-09T02:57:37.280Z,1024.84
2023-01-09T02:58:37.313Z,1024.99
2023-01-09T02:59:37.270Z,1025.34
2023-01-09T03:00:37.260Z,1025.51
2023-01-09T03:01:37.351Z,1024.95
2023-01-09T03:02:37.279Z,1024.59
2023-01-09T03:03:37.227Z,1024.31
2023-01-09T03:04:37.220Z,1024.40
2023-01-09T03:05:37.190Z,1023.93
2023-01-09T03:06:37.199Z,1023.73
2023-01-09T03:07:37.171Z,1023.19
2023-01-09T03:08:37.170Z,1022.35
2023-01-09T03:09:37.146Z,1022.11
2023-01-09T03:10:37.142Z,1021.80
2023-01-09T03:11:37.155Z,1021.60
2023-01-09T03:12:37.144Z,1021.11
2023-01-09T03:13:37.097Z,1020.92
2023-01-09T03:14:37.104Z,1020.71
2023-01-09T03:15:37.104Z,1021.03
2023-01-09T03:16:37.134Z,1021.17
2023-01-09T03:17:37.055Z,1021.35
2023-01-09T03:18:37.080Z,1021.90
2023-01-09T03:19:37.030Z,1022.41
2023-01-09T03:20:37.069Z,1022.47
2023-01-09T03:21:37.044Z,1023.20
2023-01-09T03:22:37.001Z,1023.87
2023-01-09T03:23:36.987Z,1024.25
2023-01-09T03:24:36.985Z,1024.73
2023-01-09T03:25:36.976Z,1025.23
2023-01-09T03:26:36.972Z,1025.29
2023-01-09T03:27:36.933Z,1025.53
2023-01-09T03:28:36.925Z,1025.59
2023-01-09T03:29:36.903Z,1025.71
2023-01-09T03:30:44.161Z,1025.93
2023-01-09T03:31:37.010Z,1026.25
2023-01-09T03:32:44.664Z,1026.38
2023-01-09T03:33:45.132Z,1026.60
2023-01-09T03:34:45.412Z,1026.79
2023-01-09T03:35:45.134Z,1026.84
2023-01-09T03:36:44.151Z,1027.07
2023-01-09T03:37:45.119Z,1027.29
2023-01-09T03:38:44.060Z,1027.38
2023-01-09T03:39:36.797Z,1027.39
2023-01-09T03:40:36.785Z,1027.31
2023-01-09T03:41:36.801Z,1027.67
2023-01-09T03:42:36.771Z,1028.38
2023-01-09T03:43:36.761Z,1028.78
2023-01-09T03:44:36.776Z,1029.26
2023-01-09T03:45:36.780Z,1029.55
2023-01-09T03:46:36.734Z,1029.78
2023-01-09T03:47:36.731Z,1030.06
2023-01-09T03:48:36.716Z,1030.27
2023-01-09T03:49:36.693Z,1030.48
2023-01-09T03:50:36.700Z,1030.85
2023-01-09T03:51:36.695Z,1031.16
2023-01-09T03:52:36.688Z,1031.50
2023-01-09T03:53:36.647Z,1031.84
2023-01-09T03:54:36.643Z,1032.18
2023-01-09T03:55:36.638Z,1032.36
2023-01-09T03:56:36.622Z,1032.48
2023-01-09T03:57:36.629Z,1032.73
2023-01-09T03:58:36.591Z,1032.75
2023-01-09T03:59:36.591Z,1032.82
2023-01-09T04:00:36.582Z,1032.83
2023-01-09T04:01:36.648Z,1032.83
2023-01-09T04:02:36.551Z,1032.82
2023-01-09T04:03:36.657Z,1032.83
2023-01-09T04:04:37.380Z,1032.83
2023-01-09T04:05:36.526Z,1032.83
2023-01-09T04:06:36.531Z,1032.83
2023-01-09T04:07:36.516Z,1032.82
2023-01-09T04:08:36.481Z,1032.82
2023-01-09T04:09:36.507Z,1032.77
2023-01-09T04:10:36.469Z,1032.79
2023-01-09T04:11:36.496Z,1032.77
2023-01-09T04:12:36.441Z,1032.77
2023-01-09T04:13:36.464Z,1032.80
2023-01-09T04:14:36.411Z,1032.82
2023-01-09T04:15:36.402Z,1032.81
2023-01-09T04:16:36.504Z,1032.83
2023-01-09T04:17:36.403Z,1032.82
2023-01-09T04:18:36.386Z,1032.75
2023-01-09T04:19:36.373Z,1032.80
2023-01-09T04:20:36.364Z,1032.84
2023-01-09T04:21:36.380Z,1032.84
2023-01-09T04:22:36.331Z,1032.83
2023-01-09T04:23:36.333Z,1032.82
2023-01-09T04:24:36.317Z,1032.82
2023-01-09T04:25:36.295Z,1032.82
2023-01-09T04:26:36.327Z,1032.81
2023-01-09T04:27:36.308Z,1032.77
2023-01-09T04:28:36.258Z,1032.76
2023-01-09T04:29:36.287Z,1032.72
2023-01-09T04:30:36.237Z,1032.61
2023-01-09T04:31:36.304Z,1032.62
2023-01-09T04:32:36.265Z,1032.58
2023-01-09T04:33:36.211Z,1032.57
2023-01-09T04:34:36.191Z,1032.55
2023-01-09T04:35:36.203Z,1032.56
2023-01-09T04:36:36.210Z,1032.55
2023-01-09T04:37:36.172Z,1032.48
2023-01-09T04:38:36.153Z,1032.38
2023-01-09T04:39:36.151Z,1032.36
2023-01-09T04:40:36.129Z,1032.36
2023-01-09T04:41:36.152Z,1032.33
2023-01-09T04:42:36.114Z,1032.45
2023-01-09T04:43:36.096Z,1032.48
2023-01-09T04:44:36.094Z,1032.55
2023-01-09T04:45:36.141Z,1032.60
2023-01-09T04:46:36.082Z,1032.74
2023-01-09T04:47:36.046Z,1032.81
2023-01-09T04:48:36.046Z,1032.77
2023-01-09T04:49:36.032Z,1032.72
2023-01-09T04:50:36.024Z,1032.36
2023-01-09T04:51:36.028Z,1032.14
2023-01-09T04:52:38.787Z,1031.93
2023-01-09T04:53:35.987Z,1031.69
2023-01-09T04:54:35.994Z,1031.55
2023-01-09T04:55:35.966Z,1031.33
2023-01-09T04:56:35.976Z,1031.18
2023-01-09T04:57:35.959Z,1031.00
2023-01-09T04:58:35.945Z,1030.76
2023-01-09T04:59:35.919Z,1030.51
2023-01-09T05:00:35.929Z,1030.29
2023-01-09T05:01:36.081Z,1030.17
2023-01-09T05:02:35.885Z,1029.76
2023-01-09T05:03:35.879Z,1029.47
2023-01-09T05:04:35.921Z,1029.50
2023-01-09T05:05:35.857Z,1029.36
2023-01-09T05:06:35.871Z,1028.98
2023-01-09T05:07:35.843Z,1028.56
2023-01-09T05:08:35.826Z,1028.12
2023-01-09T05:09:35.825Z,1027.55
2023-01-09T05:10:35.810Z,1027.19
2023-01-09T05:11:35.828Z,1026.17
2023-01-09T05:12:35.788Z,1025.13
2023-01-09T05:13:35.764Z,1024.52
2023-01-09T05:14:35.769Z,1023.83
2023-01-09T05:15:35.745Z,1023.09
2023-01-09T05:16:35.780Z,1022.39
2023-01-09T05:17:35.740Z,1021.85
2023-01-09T05:18:35.748Z,1021.61
2023-01-09T05:19:35.699Z,1021.23
2023-01-09T05:20:35.701Z,1020.44
2023-01-09T05:21:35.703Z,1020.24
2023-01-09T05:22:35.658Z,1019.80
2023-01-09T05:23:35.660Z,1019.40
2023-01-09T05:24:35.667Z,1018.62
2023-01-09T05:25:35.634Z,1018.26
2023-01-09T05:26:35.665Z,1018.19
2023-01-09T05:27:35.630Z,1018.34
2023-01-09T05:28:35.616Z,1018.08
2023-01-09T05:29:35.585Z,1018.41
2023-01-09T05:30:35.577Z,1018.91
2023-01-09T05:31:35.622Z,1019.51
2023-01-09T05:32:35.547Z,1020.17
2023-01-09T05:33:35.537Z,1021.03
2023-01-09T05:34:42.819Z,1021.02
2023-01-09T05:35:35.525Z,1021.29
2023-01-09T05:36:42.756Z,1021.25
2023-01-09T05:37:42.746Z,1021.56
2023-01-09T05:38:43.121Z,1021.83
2023-01-09T05:39:44.012Z,1022.25
2023-01-09T05:40:40.278Z,1022.02
2023-01-09T05:42:47.725Z,1023.23
2023-01-09T05:43:54.909Z,1022.72
2023-01-09T05:44:55.952Z,1022.83
2023-01-09T05:45:47.648Z,1023.20
2023-01-09T05:46:47.642Z,1023.50
2023-01-09T05:47:47.613Z,1023.37
2023-01-09T05:48:47.588Z,1023.58
2023-01-09T05:49:47.622Z,1023.87
2023-01-09T05:50:47.582Z,1023.81
2023-01-09T05:51:47.570Z,1023.75
2023-01-09T05:52:47.550Z,1023.87
2023-01-09T05:53:47.553Z,1024.04
2023-01-09T05:54:47.544Z,1024.05
2023-01-09T05:55:47.512Z,1023.83
2023-01-09T05:56:47.523Z,1023.70
2023-01-09T05:57:47.504Z,1023.16
2023-01-09T05:58:47.498Z,1022.79
2023-01-09T05:59:47.475Z,1022.02
2023-01-09T06:00:47.489Z,1021.33
2023-01-09T06:01:47.519Z,1020.29
2023-01-09T06:02:48.310Z,1019.45
2023-01-09T06:03:47.423Z,1018.63
2023-01-09T06:04:47.421Z,1017.68
2023-01-09T06:05:47.393Z,1017.45
2023-01-09T06:06:47.429Z,1016.86
2023-01-09T06:07:47.391Z,1016.23
2023-01-09T06:08:47.382Z,1016.16
2023-01-09T06:09:47.375Z,1016.13
2023-01-09T06:10:47.377Z,1015.80
2023-01-09T06:11:47.366Z,1015.59
2023-01-09T06:12:47.329Z,1015.14
2023-01-09T06:13:47.325Z,1014.92
2023-01-09T06:14:47.302Z,1015.09
2023-01-09T06:15:47.323Z,1015.34
2023-01-09T06:16:47.295Z,1015.64
2023-01-09T06:17:47.312Z,1015.99
2023-01-09T06:18:47.252Z,1016.15
2023-01-09T06:19:47.257Z,1016.44
2023-01-09T06:20:47.234Z,1016.58
2023-01-09T06:21:47.241Z,1016.84
2023-01-09T06:22:47.213Z,1017.36
2023-01-09T06:23:47.198Z,1016.98
2023-01-09T06:24:47.193Z,1016.29
2023-01-09T06:25:47.204Z,1015.36
2023-01-09T06:26:47.155Z,1014.96
2023-01-09T06:27:47.152Z,1014.53
2023-01-09T06:28:47.142Z,1014.70
2023-01-09T06:29:47.138Z,1014.83
2023-01-09T06:30:47.176Z,1014.81
2023-01-09T06:31:47.113Z,1014.30
2023-01-09T06:32:47.108Z,1014.03
2023-01-09T06:33:47.077Z,1013.35
2023-01-09T06:34:47.066Z,1012.57
2023-01-09T06:35:47.089Z,1012.25
2023-01-09T06:36:47.787Z,1011.86
2023-01-09T06:37:47.046Z,1011.57
2023-01-09T06:38:47.037Z,1011.19
2023-01-09T06:39:47.014Z,1010.65
2023-01-09T06:40:47.001Z,1010.11
2023-01-09T06:41:48.500Z,1009.50
2023-01-09T06:42:46.981Z,1009.08
2023-01-09T06:43:46.968Z,1008.83
2023-01-09T06:44:46.975Z,1008.22
2023-01-09T06:45:46.949Z,1007.66
2023-01-09T06:46:46.959Z,1007.04
2023-01-09T06:47:46.932Z,1006.40
2023-01-09T06:48:46.920Z,1006.19
2023-01-09T06:49:46.903Z,1006.17
2023-01-09T06:50:46.918Z,1006.00
2023-01-09T06:51:46.910Z,1005.31
2023-01-09T06:52:46.859Z,1004.64
2023-01-09T06:53:46.875Z,1004.16
2023-01-09T06:54:46.846Z,1003.82
2023-01-09T06:55:46.839Z,1003.75
2023-01-09T06:56:46.840Z,1003.73
2023-01-09T06:57:46.816Z,1003.28
2023-01-09T06:58:46.797Z,1002.79
2023-01-09T06:59:46.769Z,1002.27
2023-01-09T07:00:46.788Z,1001.65
2023-01-09T07:01:46.837Z,1001.22
2023-01-09T07:02:46.781Z,1000.86
2023-01-09T07:03:46.784Z,1000.82
2023-01-09T07:04:46.730Z,1000.07
2023-01-09T07:05:46.749Z,999.79
2023-01-09T07:06:46.753Z,999.30
2023-01-09T07:07:46.699Z,999.27
2023-01-09T07:08:47.888Z,999.20
2023-01-09T07:09:46.751Z,998.88
2023-01-09T07:10:46.690Z,999.10
2023-01-09T07:11:46.642Z,998.21
2023-01-09T07:12:46.648Z,997.75
2023-01-09T07:13:46.676Z,998.24
2023-01-09T07:14:46.623Z,997.54
2023-01-09T07:15:46.621Z,997.91
2023-01-09T07:16:46.639Z,997.74
2023-01-09T07:17:46.570Z,997.87
2023-01-09T07:18:46.590Z,998.08
2023-01-09T07:19:46.574Z,998.00
2023-01-09T07:20:46.529Z,997.79
2023-01-09T07:21:46.542Z,997.66
2023-01-09T07:22:46.580Z,997.54
2023-01-09T07:23:46.524Z,997.50
2023-01-09T07:24:46.490Z,997.57
2023-01-09T07:25:46.525Z,997.34
2023-01-09T07:26:46.499Z,997.19
2023-01-09T07:27:46.504Z,997.12
2023-01-09T07:28:46.641Z,996.50
2023-01-09T07:29:47.241Z,996.01
2023-01-09T07:30:46.446Z,996.05
2023-01-09T07:31:46.482Z,995.76
2023-01-09T07:32:46.512Z,995.18
2023-01-09T07:33:46.403Z,995.17
2023-01-09T07:34:46.398Z,995.24
2023-01-09T07:35:46.425Z,995.34
2023-01-09T07:36:46.362Z,995.77
2023-01-09T07:37:46.334Z,995.58
2023-01-09T07:38:46.337Z,995.91
2023-01-09T07:39:46.312Z,995.89
2023-01-09T07:40:46.303Z,996.53
2023-01-09T07:41:46.331Z,997.07
2023-01-09T07:42:46.273Z,997.43
2023-01-09T07:43:53.627Z,997.71
2023-01-09T07:44:55.602Z,998.24
2023-01-09T07:45:54.521Z,998.66
2023-01-09T07:46:55.328Z,999.76
2023-01-09T07:47:46.234Z,1001.15
2023-01-09T07:48:46.231Z,1002.29
2023-01-09T07:49:46.278Z,1002.53
2023-01-09T07:50:46.203Z,1002.88
2023-01-09T07:51:46.201Z,1003.45
2023-01-09T07:52:46.167Z,1004.38
2023-01-09T07:53:46.161Z,1005.65
2023-01-09T07:54:46.149Z,1006.27
2023-01-09T07:55:46.139Z,1007.04
2023-01-09T07:56:46.129Z,1007.67
2023-01-09T07:57:46.119Z,1007.70
2023-01-09T07:58:46.102Z,1008.97
2023-01-09T07:59:46.088Z,1010.43
2023-01-09T08:00:46.103Z,1010.19
2023-01-09T08:01:46.216Z,1008.90
2023-01-09T08:02:46.110Z,1007.84
2023-01-09T08:03:46.046Z,1006.78
2023-01-09T08:04:46.045Z,1006.13
2023-01-09T08:05:46.099Z,1006.78
2023-01-09T08:06:46.021Z,1007.53
2023-01-09T08:07:46.013Z,1008.60
2023-01-09T08:08:45.990Z,1010.64
2023-01-09T08:09:45.991Z,1013.85
2023-01-09T08:10:45.972Z,1015.44
2023-01-09T08:11:45.972Z,1014.97
2023-01-09T08:12:45.941Z,1014.20
2023-01-09T08:13:45.971Z,1013.45
2023-01-09T08:14:45.931Z,1012.86
2023-01-09T08:15:45.956Z,1012.05
2023-01-09T08:16:45.917Z,1008.82
2023-01-09T08:17:45.896Z,1008.24
2023-01-09T08:18:45.901Z,1004.65
2023-01-09T08:19:45.861Z,1002.41
2023-01-09T08:20:45.853Z,1001.22
2023-01-09T08:21:45.863Z,1001.99
2023-01-09T08:22:45.830Z,1004.57
2023-01-09T08:23:45.840Z,1004.81
2023-01-09T08:24:45.806Z,997.86
2023-01-09T08:25:45.803Z,997.03
2023-01-09T08:26:45.825Z,997.86
2023-01-09T08:27:45.774Z,998.37
2023-01-09T08:28:45.768Z,998.86
2023-01-09T08:29:45.764Z,998.11
2023-01-09T08:30:45.751Z,997.69
2023-01-09T08:31:45.790Z,998.85
2023-01-09T08:32:45.740Z,1000.99
2023-01-09T08:33:45.709Z,1003.43
2023-01-09T08:34:45.757Z,1005.63
2023-01-09T08:35:45.797Z,1006.08
2023-01-09T08:36:45.685Z,1005.45
2023-01-09T08:37:45.653Z,1002.77
2023-01-09T08:38:45.681Z,1000.49
2023-01-09T08:39:47.421Z,1000.21
2023-01-09T08:40:45.645Z,999.57
2023-01-09T08:41:45.632Z,998.52
2023-01-09T08:42:45.631Z,998.39
2023-01-09T08:43:45.584Z,999.36
2023-01-09T08:44:45.620Z,999.45
2023-01-09T08:45:45.587Z,999.80
2023-01-09T08:46:45.603Z,999.12
2023-01-09T08:47:45.591Z,998.96
2023-01-09T08:48:45.532Z,998.95
2023-01-09T08:49:45.552Z,1000.18
2023-01-09T08:50:45.514Z,1001.68
2023-01-09T08:51:45.548Z,1003.00
2023-01-09T08:52:45.507Z,1003.20
2023-01-09T08:53:45.496Z,1005.48
2023-01-09T08:54:45.461Z,1003.59
2023-01-09T08:55:45.456Z,1002.95
2023-01-09T08:56:45.476Z,999.60
2023-01-09T08:57:45.438Z,996.61
2023-01-09T08:58:45.420Z,994.74
2023-01-09T08:59:45.443Z,994.08
2023-01-09T09:00:45.405Z,994.75
2023-01-09T09:01:45.446Z,996.26
2023-01-09T09:02:45.415Z,996.70
2023-01-09T09:03:45.378Z,997.13
2023-01-09T09:04:46.305Z,1001.84
2023-01-09T09:05:46.824Z,995.05
2023-01-09T09:06:45.336Z,995.84
2023-01-09T09:07:45.327Z,996.59
2023-01-09T09:08:45.328Z,997.08
2023-01-09T09:09:45.303Z,997.20
2023-01-09T09:10:45.294Z,997.58
2023-01-09T09:11:45.367Z,997.23
2023-01-09T09:12:45.266Z,997.54
2023-01-09T09:13:45.272Z,998.27
2023-01-09T09:14:45.277Z,1000.08
2023-01-09T09:15:45.264Z,1012.11
2023-01-09T09:16:45.280Z,1008.23
2023-01-09T09:17:45.213Z,1012.64
2023-01-09T09:18:45.217Z,1010.28
2023-01-09T09:19:45.205Z,1003.18
2023-01-09T09:20:45.221Z,997.05
2023-01-09T09:21:45.211Z,999.17
2023-01-09T09:22:45.148Z,1001.19
2023-01-09T09:23:45.138Z,1005.90
2023-01-09T09:24:45.162Z,998.59
2023-01-09T09:25:45.122Z,995.61
2023-01-09T09:26:45.158Z,997.18
2023-01-09T09:27:45.102Z,997.88
2023-01-09T09:28:45.097Z,1004.81
2023-01-09T09:29:45.088Z,996.24
2023-01-09T09:30:45.069Z,991.85
2023-01-09T09:31:45.095Z,991.47
2023-01-09T09:32:45.091Z,1006.43
2023-01-09T09:33:45.022Z,1009.47
2023-01-09T09:34:45.018Z,1004.33
2023-01-09T09:35:45.031Z,1006.24
2023-01-09T09:36:45.087Z,1007.74
2023-01-09T09:37:44.989Z,994.49
2023-01-09T09:38:45.006Z,993.42
2023-01-09T09:39:44.963Z,996.24
2023-01-09T09:40:44.971Z,999.86
2023-01-09T09:41:44.994Z,1003.14
2023-01-09T09:42:44.949Z,1009.60
2023-01-09T09:43:44.930Z,1013.26
2023-01-09T09:44:52.630Z,1013.06
2023-01-09T09:45:45.909Z,1017.84
2023-01-09T09:46:44.915Z,1010.93
2023-01-09T09:47:52.105Z,1011.67
2023-01-09T09:48:52.182Z,1007.47
2023-01-09T09:49:53.133Z,1005.54
2023-01-09T09:50:52.111Z,1009.34
2023-01-09T09:51:52.139Z,1010.08
2023-01-09T09:52:53.590Z,1004.17
2023-01-09T09:53:52.050Z,1002.91
2023-01-09T09:54:53.050Z,1008.58
2023-01-09T09:55:44.815Z,1013.73
2023-01-09T09:56:44.892Z,1013.09
2023-01-09T09:57:45.028Z,1009.86
2023-01-09T09:58:44.757Z,1003.57
2023-01-09T09:59:44.749Z,997.07
2023-01-09T10:00:44.733Z,996.34
2023-01-09T10:01:44.727Z,996.66
2023-01-09T10:02:44.820Z,999.06
2023-01-09T10:03:44.734Z,1003.10
2023-01-09T10:04:44.683Z,1003.17
2023-01-09T10:05:44.691Z,1002.80
2023-01-09T10:06:44.672Z,1001.03
2023-01-09T10:07:44.689Z,999.99
2023-01-09T10:08:44.647Z,1002.09
2023-01-09T10:09:44.621Z,1003.35
2023-01-09T10:10:44.632Z,1001.75
2023-01-09T10:11:44.636Z,1001.46
2023-01-09T10:12:44.609Z,1002.47
2023-01-09T10:13:44.591Z,1006.49
2023-01-09T10:14:44.600Z,1011.56
2023-01-09T10:15:44.624Z,1008.59
2023-01-09T10:16:44.555Z,997.45
2023-01-09T10:17:44.552Z,1000.11
2023-01-09T10:18:44.529Z,1008.27
2023-01-09T10:19:44.524Z,1013.60
2023-01-09T10:20:44.540Z,1014.26
2023-01-09T10:21:44.501Z,1011.11
2023-01-09T10:22:44.477Z,1016.93
2023-01-09T10:23:44.490Z,1013.06
2023-01-09T10:24:44.451Z,1010.67
2023-01-09T10:25:44.627Z,1005.08
2023-01-09T10:26:44.448Z,1003.58
2023-01-09T10:27:44.438Z,1007.71
2023-01-09T10:28:44.405Z,1002.95
2023-01-09T10:29:44.413Z,1001.59
2023-01-09T10:30:44.450Z,994.06
2023-01-09T10:31:44.464Z,989.82
2023-01-09T10:32:44.430Z,988.16
2023-01-09T10:33:44.368Z,985.70
2023-01-09T10:34:46.645Z,982.90
2023-01-09T10:35:47.973Z,980.91
2023-01-09T10:36:44.370Z,978.80
2023-01-09T10:37:44.316Z,984.50
2023-01-09T10:38:44.291Z,994.78
2023-01-09T10:39:44.275Z,996.24
2023-01-09T10:40:44.272Z,991.87
2023-01-09T10:41:44.307Z,996.27
2023-01-09T10:42:44.271Z,991.87
2023-01-09T10:43:44.284Z,979.96
2023-01-09T10:44:44.231Z,960.23
2023-01-09T10:45:44.233Z,942.68
2023-01-09T10:46:44.250Z,938.19
2023-01-09T10:47:44.263Z,937.65
2023-01-09T10:48:44.190Z,941.09
2023-01-09T10:49:44.163Z,945.12
2023-01-09T10:50:44.185Z,952.39
2023-01-09T10:51:44.164Z,961.75
2023-01-09T10:52:44.875Z,965.34
2023-01-09T10:53:44.148Z,962.10
2023-01-09T10:54:44.114Z,958.07
2023-01-09T10:55:44.135Z,959.45
2023-01-09T10:56:44.172Z,967.91
2023-01-09T10:57:44.153Z,976.57
2023-01-09T10:58:44.080Z,976.77
2023-01-09T10:59:44.066Z,971.83
2023-01-09T11:00:44.076Z,968.94
2023-01-09T11:01:44.034Z,977.24
2023-01-09T11:02:44.060Z,976.91
2023-01-09T11:03:44.047Z,972.37
2023-01-09T11:04:44.013Z,971.75
2023-01-09T11:05:43.997Z,969.33
2023-01-09T11:06:43.985Z,968.50
2023-01-09T11:07:43.978Z,969.34
2023-01-09T11:08:43.955Z,968.77
2023-01-09T11:09:43.943Z,968.95
2023-01-09T11:10:43.926Z,970.45
2023-01-09T11:11:43.961Z,967.82
2023-01-09T11:12:43.931Z,960.78
2023-01-09T11:13:43.907Z,952.44
2023-01-09T11:14:43.930Z,948.52
2023-01-09T11:15:43.903Z,951.39
2023-01-09T11:16:43.858Z,951.37
2023-01-09T11:17:43.883Z,947.34
2023-01-09T11:18:43.859Z,938.78
2023-01-09T11:19:43.825Z,932.74
2023-01-09T11:20:43.822Z,933.06
2023-01-09T11:21:43.817Z,936.16
2023-01-09T11:22:43.791Z,940.44
2023-01-09T11:23:43.793Z,944.27
2023-01-09T11:24:43.791Z,948.90
2023-01-09T11:25:43.750Z,953.97
2023-01-09T11:26:43.766Z,958.47
2023-01-09T11:27:43.801Z,958.30
2023-01-09T11:28:43.724Z,952.71
2023-01-09T11:29:43.750Z,947.79
2023-01-09T11:30:43.704Z,943.87
2023-01-09T11:31:43.750Z,947.84
2023-01-09T11:32:43.744Z,956.86
2023-01-09T11:33:43.667Z,955.50
2023-01-09T11:34:44.987Z,945.80
2023-01-09T11:35:43.658Z,935.57
2023-01-09T11:36:43.664Z,929.99
2023-01-09T11:37:43.629Z,929.56
2023-01-09T11:38:43.659Z,932.24
2023-01-09T11:39:43.588Z,932.68
2023-01-09T11:40:43.637Z,929.87
2023-01-09T11:41:43.578Z,930.29
2023-01-09T11:42:43.546Z,932.08
2023-01-09T11:43:43.630Z,933.68
2023-01-09T11:44:43.543Z,933.58
2023-01-09T11:45:50.237Z,933.86
2023-01-09T11:46:44.565Z,935.58
2023-01-09T11:47:43.536Z,938.40
2023-01-09T11:48:43.487Z,939.90
2023-01-09T11:49:43.483Z,938.48
2023-01-09T11:50:43.463Z,934.82
2023-01-09T11:51:43.476Z,934.69
2023-01-09T11:52:43.439Z,934.55
2023-01-09T11:53:50.686Z,938.23
2023-01-09T11:54:50.671Z,942.97
2023-01-09T11:55:51.705Z,946.88
2023-01-09T11:56:43.401Z,948.64
2023-01-09T11:57:43.383Z,949.50
2023-01-09T11:58:43.438Z,953.23
2023-01-09T11:59:43.371Z,957.13
2023-01-09T12:00:43.363Z,957.51
2023-01-09T12:01:43.374Z,957.88
2023-01-09T12:02:43.405Z,959.97
2023-01-09T12:03:43.398Z,962.50
2023-01-09T12:04:43.342Z,965.77
2023-01-09T12:05:43.309Z,969.53
2023-01-09T12:06:43.314Z,973.87
2023-01-09T12:07:43.284Z,977.12
2023-01-09T12:08:43.272Z,983.11
2023-01-09T12:09:43.249Z,986.71
2023-01-09T12:10:43.256Z,988.16
2023-01-09T12:11:43.241Z,987.83
2023-01-09T12:12:43.226Z,985.97
2023-01-09T12:13:43.211Z,982.22
2023-01-09T12:14:43.232Z,978.18
2023-01-09T12:15:43.203Z,974.72
2023-01-09T12:16:43.231Z,974.04